createdAt,value
2017-08-07T00:01:14.527Z,6.70
2017-08-07T00:03:42.079Z,6.70
2017-08-07T00:06:09.671Z,6.60
2017-08-07T00:08:37.207Z,6.57
2017-08-07T00:11:04.748Z,6.03
2017-08-07T00:13:32.341Z,6.47
2017-08-07T00:15:59.900Z,6.27
2017-08-07T00:18:27.446Z,6.93
2017-08-07T00:20:55.037Z,6.90
2017-08-07T00:23:22.596Z,6.53
2017-08-07T00:25:50.159Z,7.27
2017-08-07T00:28:17.730Z,6.40
2017-08-07T00:30:45.293Z,6.23
2017-08-07T00:33:12.856Z,7.00
2017-08-07T00:35:40.428Z,7.60
2017-08-07T00:38:07.985Z,7.03
2017-08-07T00:40:36.309Z,7.37
2017-08-07T00:43:03.894Z,8.37
2017-08-07T00:45:31.439Z,7.70
2017-08-07T00:47:58.986Z,8.87
2017-08-07T00:50:26.563Z,7.70
2017-08-07T00:52:54.093Z,7.13
2017-08-07T00:55:21.657Z,8.20
2017-08-07T00:57:49.234Z,7.87
2017-08-07T01:00:16.779Z,8.40
2017-08-07T01:02:44.346Z,8.23
2017-08-07T01:05:11.930Z,7.70
2017-08-07T01:07:39.470Z,8.80
2017-08-07T01:10:07.010Z,9.10
2017-08-07T01:12:34.607Z,7.43
2017-08-07T01:15:02.175Z,8.13
2017-08-07T01:17:29.713Z,8.00
2017-08-07T01:19:57.550Z,8.50
2017-08-07T01:22:25.121Z,8.07
2017-08-07T01:24:52.676Z,7.37
2017-08-07T01:27:20.273Z,7.93
2017-08-07T01:29:47.820Z,7.73
2017-08-07T01:32:16.153Z,7.70
2017-08-07T01:34:43.749Z,8.10
2017-08-07T01:37:11.317Z,8.00
2017-08-07T01:39:38.877Z,7.60
2017-08-07T01:42:06.463Z,8.77
2017-08-07T01:44:34.001Z,7.87
2017-08-07T01:47:01.561Z,8.50
2017-08-07T01:49:29.154Z,7.83
2017-08-07T01:51:56.712Z,8.30
2017-08-07T01:54:24.299Z,8.17
2017-08-07T01:56:52.070Z,8.07
2017-08-07T01:59:19.622Z,7.57
2017-08-07T02:01:47.189Z,8.10
2017-08-07T02:04:14.792Z,7.83
2017-08-07T02:06:42.339Z,9.33
2017-08-07T02:09:09.892Z,8.50
2017-08-07T02:11:37.498Z,8.00
2017-08-07T02:14:05.045Z,8.30
2017-08-07T02:16:33.358Z,8.67
2017-08-07T02:19:00.930Z,8.07
2017-08-07T02:21:28.470Z,8.63
2017-08-07T02:23:56.028Z,9.20
2017-08-07T02:26:23.616Z,8.60
2017-08-07T02:28:51.162Z,9.40
2017-08-07T02:31:18.716Z,9.70
2017-08-07T02:33:46.295Z,9.40
2017-08-07T02:36:13.839Z,9.43
2017-08-07T02:38:41.392Z,9.50
2017-08-07T02:41:08.957Z,9.80
2017-08-07T02:43:36.522Z,10.40
2017-08-07T02:46:04.143Z,9.77
2017-08-07T02:48:31.701Z,9.70
2017-08-07T02:50:59.262Z,8.80
2017-08-07T02:53:26.837Z,9.53
2017-08-07T02:55:54.392Z,9.00
2017-08-07T02:58:21.953Z,9.20
2017-08-07T03:00:49.494Z,9.80
2017-08-07T03:03:17.026Z,9.00
2017-08-07T03:05:44.608Z,7.93
2017-08-07T03:08:12.164Z,9.40
2017-08-07T03:10:39.737Z,9.33
2017-08-07T03:13:07.297Z,9.40
2017-08-07T03:15:34.847Z,8.50
2017-08-07T03:18:02.419Z,9.20
2017-08-07T03:20:29.975Z,9.67
2017-08-07T03:22:57.548Z,9.40
2017-08-07T03:25:25.090Z,9.40
2017-08-07T03:27:52.692Z,8.43
2017-08-07T03:30:20.269Z,9.37
2017-08-07T03:32:47.822Z,8.73
2017-08-07T03:35:15.802Z,9.13
2017-08-07T03:37:43.373Z,10.10
2017-08-07T03:40:11.696Z,9.00
2017-08-07T03:42:39.276Z,9.17
2017-08-07T03:45:06.837Z,9.00
2017-08-07T03:47:34.428Z,9.07
2017-08-07T03:50:01.982Z,9.77
2017-08-07T03:52:29.522Z,8.37
2017-08-07T03:54:57.086Z,8.20
2017-08-07T03:57:24.669Z,9.20
2017-08-07T03:59:52.256Z,9.53
2017-08-07T04:02:20.595Z,8.73
2017-08-07T04:04:48.149Z,8.63
2017-08-07T04:07:15.725Z,8.37
2017-08-07T04:09:43.287Z,8.77
2017-08-07T04:12:10.864Z,8.97
2017-08-07T04:14:38.428Z,9.53
2017-08-07T04:17:05.977Z,9.40
2017-08-07T04:19:33.534Z,9.07
2017-08-07T04:22:01.071Z,8.90
2017-08-07T04:24:28.651Z,8.27
2017-08-07T04:26:56.210Z,9.20
2017-08-07T04:29:23.745Z,9.10
2017-08-07T04:31:51.307Z,7.67
2017-08-07T04:34:18.870Z,8.50
2017-08-07T04:36:46.439Z,7.50
2017-08-07T04:39:14.001Z,8.33
2017-08-07T04:41:41.576Z,8.93
2017-08-07T04:44:09.134Z,6.50
2017-08-07T04:46:36.697Z,7.50
2017-08-07T04:49:04.266Z,7.87
2017-08-07T04:51:31.801Z,6.80
2017-08-07T04:53:59.344Z,8.30
2017-08-07T04:56:26.912Z,7.77
2017-08-07T04:58:54.460Z,7.25
2017-08-07T05:01:22.038Z,7.07
2017-08-07T05:03:49.758Z,6.47
2017-08-07T05:06:17.309Z,6.65
2017-08-07T05:08:44.889Z,7.20
2017-08-07T05:11:12.436Z,6.63
2017-08-07T05:13:40.002Z,5.97
2017-08-07T05:16:07.554Z,6.33
2017-08-07T05:18:35.110Z,6.50
2017-08-07T05:21:02.669Z,6.03
2017-08-07T05:23:30.220Z,6.00
2017-08-07T05:25:57.808Z,6.30
2017-08-07T05:28:25.360Z,5.87
2017-08-07T05:30:52.907Z,5.80
2017-08-07T05:33:20.466Z,6.90
2017-08-07T05:35:48.021Z,6.30
2017-08-07T05:38:15.592Z,6.17
2017-08-07T05:40:43.136Z,6.40
2017-08-07T05:43:10.721Z,5.77
2017-08-07T05:45:38.261Z,6.00
2017-08-07T05:48:05.820Z,6.77
2017-08-07T05:50:33.390Z,5.90
2017-08-07T05:53:00.949Z,6.00
2017-08-07T05:55:28.523Z,5.70
2017-08-07T05:57:56.064Z,6.67
2017-08-07T06:00:23.618Z,5.30
2017-08-07T06:02:51.960Z,5.63
2017-08-07T06:05:19.524Z,5.80
2017-08-07T06:07:47.126Z,5.60
2017-08-07T06:10:14.694Z,5.70
2017-08-07T06:12:42.231Z,5.67
2017-08-07T06:15:09.794Z,5.20
2017-08-07T06:17:37.342Z,4.70
2017-08-07T06:20:04.949Z,4.83
2017-08-07T06:22:32.490Z,5.00
2017-08-07T06:25:00.799Z,5.00
2017-08-07T06:27:28.383Z,4.80
2017-08-07T06:29:55.949Z,5.00
2017-08-07T06:32:23.529Z,4.50
2017-08-07T06:34:51.078Z,4.77
2017-08-07T06:37:18.618Z,4.10
2017-08-07T06:39:46.462Z,4.40
2017-08-07T06:42:14.585Z,4.47
2017-08-07T06:44:42.460Z,3.83
2017-08-07T06:47:10.006Z,4.60
2017-08-07T06:49:37.534Z,4.20
2017-08-07T06:52:05.090Z,3.80
2017-08-07T06:54:32.629Z,3.60
2017-08-07T06:57:00.981Z,3.40
2017-08-07T06:59:28.522Z,2.60
2017-08-07T07:01:56.080Z,4.30
2017-08-07T07:04:23.641Z,2.97
2017-08-07T07:06:51.218Z,2.43
2017-08-07T07:09:18.811Z,2.40
2017-08-07T07:11:46.394Z,2.60
2017-08-07T07:17:07.996Z,2.47
2017-08-07T07:19:35.545Z,2.20
2017-08-07T07:22:03.189Z,2.20
2017-08-07T07:24:30.792Z,2.30
2017-08-07T07:26:58.339Z,2.07
2017-08-07T07:29:25.924Z,2.30
2017-08-07T07:31:53.471Z,3.03
2017-08-07T07:34:21.056Z,2.40
2017-08-07T07:36:48.614Z,2.40
2017-08-07T07:39:16.209Z,2.60
2017-08-07T07:41:43.768Z,2.60
2017-08-07T07:44:11.325Z,3.10
2017-08-07T07:46:38.895Z,3.07
2017-08-07T07:49:06.454Z,2.60
2017-08-07T07:51:34.014Z,2.77
2017-08-07T07:54:01.593Z,2.90
2017-08-07T07:56:29.139Z,3.30
2017-08-07T07:58:56.718Z,3.00
2017-08-07T08:01:24.281Z,2.60
2017-08-07T08:03:51.832Z,2.97
2017-08-07T08:06:19.408Z,3.00
2017-08-07T08:08:46.979Z,2.80
2017-08-07T08:11:14.558Z,3.63
2017-08-07T08:13:42.115Z,2.80
2017-08-07T08:16:09.663Z,3.30
2017-08-07T08:18:37.235Z,2.97
2017-08-07T08:21:04.768Z,2.83
2017-08-07T08:23:32.351Z,3.27
2017-08-07T08:25:59.913Z,3.40
2017-08-07T08:28:27.450Z,2.43
2017-08-07T08:30:55.008Z,2.90
2017-08-07T08:33:22.560Z,2.70
2017-08-07T08:35:50.894Z,3.33
2017-08-07T08:38:18.494Z,2.70
2017-08-07T08:40:46.790Z,2.53
2017-08-07T08:43:14.361Z,3.00
2017-08-07T08:45:41.922Z,3.00
2017-08-07T08:48:09.484Z,2.77
2017-08-07T08:50:37.027Z,2.40
2017-08-07T08:53:05.331Z,1.93
2017-08-07T08:55:32.892Z,2.40
2017-08-07T08:58:00.422Z,3.00
2017-08-07T09:00:28.768Z,3.20
2017-08-07T09:02:56.353Z,2.43
2017-08-07T09:05:24.674Z,2.17
2017-08-07T09:07:52.234Z,2.50
2017-08-07T09:10:19.787Z,2.20
2017-08-07T09:12:47.369Z,2.40
2017-08-07T09:15:14.904Z,2.50
2017-08-07T09:17:42.456Z,2.33
2017-08-07T09:20:10.781Z,2.20
2017-08-07T09:22:38.341Z,2.33
2017-08-07T09:25:05.901Z,2.33
2017-08-07T09:27:33.430Z,2.47
2017-08-07T09:30:00.993Z,1.83
2017-08-07T09:32:28.550Z,2.23
2017-08-07T09:34:56.858Z,2.00
2017-08-07T09:37:24.454Z,2.47
2017-08-07T09:39:52.014Z,2.70
2017-08-07T09:42:19.561Z,2.90
2017-08-07T09:44:47.123Z,2.23
2017-08-07T09:47:14.658Z,2.40
2017-08-07T09:49:42.252Z,2.70
2017-08-07T09:52:09.782Z,2.53
2017-08-07T09:54:37.325Z,2.40
2017-08-07T09:57:05.651Z,3.10
2017-08-07T09:59:33.188Z,2.60
2017-08-07T10:02:01.735Z,2.43
2017-08-07T10:04:30.048Z,2.70
2017-08-07T10:06:57.588Z,2.47
2017-08-07T10:09:25.929Z,2.40
2017-08-07T10:11:53.482Z,2.40
2017-08-07T10:14:21.057Z,2.17
2017-08-07T10:16:48.627Z,2.40
2017-08-07T10:19:16.975Z,3.07
2017-08-07T10:21:44.535Z,2.80
2017-08-07T10:24:12.124Z,2.53
2017-08-07T10:26:40.483Z,2.00
2017-08-07T10:29:08.031Z,2.13
2017-08-07T10:31:35.572Z,3.03
2017-08-07T10:34:03.146Z,2.27
2017-08-07T10:36:30.703Z,2.90
2017-08-07T10:38:58.292Z,2.50
2017-08-07T10:41:25.841Z,2.40
2017-08-07T10:43:53.669Z,2.60
2017-08-07T10:46:21.265Z,2.20
2017-08-07T10:48:48.830Z,2.67
2017-08-07T10:51:16.416Z,2.23
2017-08-07T10:53:43.988Z,2.60
2017-08-07T10:56:11.530Z,2.70
2017-08-07T10:58:39.086Z,2.80
2017-08-07T11:01:08.510Z,2.30
2017-08-07T11:03:36.099Z,2.60
2017-08-07T11:06:03.664Z,2.27
2017-08-07T11:08:31.244Z,2.80
2017-08-07T11:10:59.576Z,2.20
2017-08-07T11:13:27.140Z,2.17
2017-08-07T11:15:54.708Z,2.27
2017-08-07T11:18:22.260Z,2.27
2017-08-07T11:20:49.882Z,2.00
2017-08-07T11:23:17.485Z,2.90
2017-08-07T11:25:45.033Z,1.70
2017-08-07T11:28:12.624Z,2.10
2017-08-07T11:30:40.177Z,2.37
2017-08-07T11:33:07.753Z,1.97
2017-08-07T11:35:35.310Z,2.40
2017-08-07T11:38:02.842Z,2.33
2017-08-07T11:40:30.460Z,2.40
2017-08-07T11:42:58.413Z,2.40
2017-08-07T11:45:27.345Z,2.80
2017-08-07T11:47:54.912Z,2.13
2017-08-07T11:50:22.463Z,2.30
2017-08-07T11:52:50.062Z,2.00
2017-08-07T11:55:17.613Z,2.50
2017-08-07T11:57:45.164Z,2.40
2017-08-07T12:00:12.735Z,2.70
2017-08-07T12:02:40.361Z,2.30
2017-08-07T12:05:10.886Z,2.83
2017-08-07T12:07:39.249Z,2.03
2017-08-07T12:10:06.838Z,2.47
2017-08-07T12:12:35.181Z,2.50
2017-08-07T12:15:02.728Z,2.80
2017-08-07T12:17:30.321Z,2.07
2017-08-07T12:19:57.874Z,2.80
2017-08-07T12:22:25.500Z,2.10
2017-08-07T12:24:53.070Z,2.37
2017-08-07T12:27:20.617Z,2.33
2017-08-07T12:29:48.213Z,2.73
2017-08-07T12:32:15.780Z,2.13
2017-08-07T12:34:43.336Z,2.30
2017-08-07T12:37:11.022Z,2.17
2017-08-07T12:39:38.566Z,2.13
2017-08-07T12:42:06.126Z,2.13
2017-08-07T12:44:33.666Z,2.60
2017-08-07T12:47:01.206Z,2.37
2017-08-07T12:49:28.762Z,1.73
2017-08-07T12:51:56.322Z,2.27
2017-08-07T12:54:23.939Z,2.40
2017-08-07T12:56:51.603Z,2.40
2017-08-07T12:59:19.169Z,2.70
2017-08-07T13:01:46.755Z,2.53
2017-08-07T13:04:15.079Z,2.10
2017-08-07T13:06:42.665Z,2.10
2017-08-07T13:09:10.205Z,2.27
2017-08-07T13:11:37.761Z,3.27
2017-08-07T13:14:05.337Z,2.50
2017-08-07T13:16:32.888Z,2.53
2017-08-07T13:19:00.453Z,2.93
2017-08-07T13:21:28.000Z,2.90
2017-08-07T13:23:55.539Z,2.40
2017-08-07T13:26:23.855Z,2.27
2017-08-07T13:28:51.406Z,2.47
2017-08-07T13:31:18.970Z,2.30
2017-08-07T13:33:46.518Z,2.10
2017-08-07T13:36:14.064Z,2.40
2017-08-07T13:38:42.405Z,2.50
2017-08-07T13:41:09.938Z,2.40
2017-08-07T13:43:37.506Z,2.57
2017-08-07T13:46:05.069Z,2.90
2017-08-07T13:48:32.620Z,2.10
2017-08-07T13:51:00.192Z,3.27
2017-08-07T13:53:27.744Z,2.63
2017-08-07T13:55:55.316Z,2.50
2017-08-07T13:58:22.862Z,2.70
2017-08-07T14:00:50.401Z,2.90
2017-08-07T14:03:18.742Z,3.10
2017-08-07T14:05:46.292Z,3.00
2017-08-07T14:08:13.859Z,2.23
2017-08-07T14:10:41.412Z,2.30
2017-08-07T14:13:08.944Z,2.70
2017-08-07T14:15:36.510Z,2.60
2017-08-07T14:18:04.091Z,2.50
2017-08-07T14:20:31.680Z,2.77
2017-08-07T14:22:59.239Z,2.43
2017-08-07T14:25:26.891Z,2.70
2017-08-07T14:30:49.876Z,2.80
2017-08-07T14:33:17.490Z,2.70
2017-08-07T14:35:45.051Z,2.90
2017-08-07T14:38:12.606Z,2.83
2017-08-07T14:40:41.025Z,3.13
2017-08-07T14:43:08.577Z,2.70
2017-08-07T14:45:36.164Z,2.47
2017-08-07T14:48:03.714Z,2.60
2017-08-07T14:50:31.272Z,2.80
2017-08-07T14:52:58.849Z,2.80
2017-08-07T14:55:26.384Z,3.40
2017-08-07T14:57:53.951Z,3.63
2017-08-07T15:00:21.497Z,3.07
2017-08-07T15:02:49.040Z,3.00
2017-08-07T15:05:17.400Z,3.00
2017-08-07T15:07:44.943Z,3.07
2017-08-07T15:10:12.517Z,3.27
2017-08-07T15:12:40.052Z,3.00
2017-08-07T15:15:07.588Z,3.00
2017-08-07T15:17:35.172Z,3.00
2017-08-07T15:20:02.720Z,3.00
2017-08-07T15:22:30.334Z,2.70
2017-08-07T15:24:59.965Z,2.93
2017-08-07T15:27:28.747Z,2.93
2017-08-07T15:29:56.320Z,2.70
2017-08-07T15:32:23.868Z,3.40
2017-08-07T15:34:51.459Z,3.17
2017-08-07T15:37:18.999Z,3.03
2017-08-07T15:39:47.326Z,3.03
2017-08-07T15:42:14.901Z,3.00
2017-08-07T15:44:42.453Z,3.10
2017-08-07T15:47:10.041Z,2.77
2017-08-07T15:49:37.598Z,3.73
2017-08-07T15:52:05.149Z,2.97
2017-08-07T15:54:32.710Z,2.67
2017-08-07T15:57:00.266Z,3.10
2017-08-07T15:59:27.850Z,2.90
2017-08-07T16:01:55.394Z,2.40
2017-08-07T16:04:22.930Z,2.60
2017-08-07T16:06:50.483Z,3.50
2017-08-07T16:09:26.066Z,2.70
2017-08-07T16:11:53.982Z,3.27
2017-08-07T16:14:21.564Z,2.47
2017-08-07T16:16:49.126Z,2.30
2017-08-07T16:19:16.681Z,3.13
2017-08-07T16:21:44.981Z,2.73
2017-08-07T16:24:12.553Z,3.17
2017-08-07T16:26:40.104Z,3.57
2017-08-07T16:29:07.638Z,3.40
2017-08-07T16:31:35.961Z,3.57
2017-08-07T16:34:03.492Z,2.77
2017-08-07T16:36:31.062Z,2.80
2017-08-07T16:38:58.599Z,3.10
2017-08-07T16:41:26.917Z,2.60
2017-08-07T16:43:54.487Z,2.50
2017-08-07T16:46:22.128Z,3.40
2017-08-07T16:48:49.698Z,3.30
2017-08-07T16:51:17.236Z,2.90
2017-08-07T16:53:44.807Z,2.87
2017-08-07T16:56:12.365Z,3.17
2017-08-07T16:58:39.912Z,3.10
2017-08-07T17:01:08.262Z,3.70
2017-08-07T17:03:35.809Z,3.40
2017-08-07T17:06:03.390Z,3.07
2017-08-07T17:08:30.948Z,3.40
2017-08-07T17:10:58.513Z,3.00
2017-08-07T17:13:26.059Z,2.80
2017-08-07T17:15:53.613Z,2.90
2017-08-07T17:18:21.162Z,3.07
2017-08-07T17:20:48.708Z,3.00
2017-08-07T17:23:16.291Z,2.83
2017-08-07T17:25:43.842Z,3.47
2017-08-07T17:28:11.380Z,3.67
2017-08-07T17:30:39.725Z,3.43
2017-08-07T17:33:07.293Z,2.67
2017-08-07T17:35:34.863Z,3.07
2017-08-07T17:38:02.407Z,2.97
2017-08-07T17:40:29.960Z,3.10
2017-08-07T17:42:57.523Z,3.07
2017-08-07T17:45:25.064Z,2.80
2017-08-07T17:47:52.653Z,3.30
2017-08-07T17:50:20.188Z,3.20
2017-08-07T17:52:47.727Z,2.77
2017-08-07T17:55:15.306Z,2.50
2017-08-07T17:57:42.871Z,3.37
2017-08-07T18:00:10.435Z,3.00
2017-08-07T18:02:37.990Z,3.53
2017-08-07T18:05:06.168Z,3.10
2017-08-07T18:07:33.748Z,3.10
2017-08-07T18:10:01.286Z,3.43
2017-08-07T18:12:28.875Z,3.00
2017-08-07T18:14:56.533Z,2.87
2017-08-07T18:17:24.088Z,2.77
2017-08-07T18:19:51.665Z,3.10
2017-08-07T18:22:22.882Z,3.00
2017-08-07T18:24:50.473Z,2.90
2017-08-07T18:27:18.023Z,3.20
2017-08-07T18:29:45.579Z,4.00
2017-08-07T18:32:13.136Z,2.73
2017-08-07T18:34:40.707Z,3.53
2017-08-07T18:37:08.272Z,2.90
2017-08-07T18:39:35.802Z,3.77
2017-08-07T18:42:03.347Z,2.70
2017-08-07T18:44:31.696Z,3.30
2017-08-07T18:46:59.241Z,3.37
2017-08-07T18:49:26.827Z,3.43
2017-08-07T18:51:56.174Z,4.10
2017-08-07T18:54:23.760Z,3.60
2017-08-07T18:56:56.000Z,4.20
2017-08-07T18:59:24.324Z,3.70
2017-08-07T19:01:51.912Z,3.93
2017-08-07T19:04:20.210Z,4.90
2017-08-07T19:06:48.537Z,5.50
2017-08-07T19:09:16.109Z,3.97
2017-08-07T19:11:43.657Z,4.43
2017-08-07T19:14:11.226Z,4.30
2017-08-07T19:16:38.777Z,3.97
2017-08-07T19:19:06.319Z,4.70
2017-08-07T19:21:33.889Z,4.80
2017-08-07T19:24:01.427Z,3.87
2017-08-07T19:26:29.003Z,4.33
2017-08-07T19:28:56.554Z,4.03
2017-08-07T19:31:24.888Z,3.77
2017-08-07T19:33:52.459Z,4.93
2017-08-07T19:36:20.014Z,3.60
2017-08-07T19:38:47.611Z,4.20
2017-08-07T19:41:15.950Z,5.00
2017-08-07T19:43:43.521Z,3.97
2017-08-07T19:46:11.097Z,3.80
2017-08-07T19:48:38.656Z,4.50
2017-08-07T19:51:06.245Z,3.90
2017-08-07T19:53:34.634Z,4.00
2017-08-07T19:56:03.020Z,3.90
2017-08-07T19:58:30.601Z,3.90
2017-08-07T20:00:58.204Z,4.50
2017-08-07T20:03:26.107Z,4.80
2017-08-07T20:05:53.857Z,4.67
2017-08-07T20:08:21.574Z,4.80
2017-08-07T20:10:49.134Z,4.70
2017-08-07T20:13:20.374Z,5.07
2017-08-07T20:15:48.147Z,5.40
2017-08-07T20:18:25.512Z,5.20
2017-08-07T20:20:53.127Z,4.70
2017-08-07T20:23:20.678Z,5.23
2017-08-07T20:25:48.258Z,5.23
2017-08-07T20:28:15.839Z,5.00
2017-08-07T20:30:43.385Z,4.80
2017-08-07T20:33:10.964Z,5.53
2017-08-07T20:35:39.312Z,5.03
2017-08-07T20:38:06.881Z,4.87
2017-08-07T20:40:34.474Z,4.83
2017-08-07T20:43:02.792Z,4.93
2017-08-07T20:45:30.814Z,5.83
2017-08-07T20:47:58.409Z,4.53
2017-08-07T20:50:25.967Z,5.00
2017-08-07T20:52:53.536Z,5.03
2017-08-07T20:55:21.092Z,5.00
2017-08-07T20:57:48.665Z,4.90
2017-08-07T21:00:16.218Z,5.90
2017-08-07T21:02:43.772Z,7.60
2017-08-07T21:05:11.363Z,5.17
2017-08-07T21:07:38.913Z,5.50
2017-08-07T21:10:06.487Z,5.50
2017-08-07T21:12:34.053Z,4.97
2017-08-07T21:15:01.608Z,5.70
2017-08-07T21:17:29.201Z,5.13
2017-08-07T21:19:56.760Z,4.30
2017-08-07T21:22:24.409Z,5.70
2017-08-07T21:24:51.957Z,5.07
2017-08-07T21:27:19.498Z,4.97
2017-08-07T21:29:47.058Z,5.10
2017-08-07T21:32:14.605Z,5.47
2017-08-07T21:34:42.960Z,5.37
2017-08-07T21:37:10.519Z,5.70
2017-08-07T21:39:38.072Z,5.10
2017-08-07T21:42:05.636Z,5.87
2017-08-07T21:44:33.197Z,6.17
2017-08-07T21:47:00.785Z,5.50
2017-08-07T21:49:28.350Z,5.67
2017-08-07T21:51:55.903Z,5.50
2017-08-07T21:54:23.481Z,5.80
2017-08-07T21:56:51.809Z,5.50
2017-08-07T21:59:19.431Z,5.43
2017-08-07T22:01:46.978Z,5.43
2017-08-07T22:04:14.528Z,6.10
2017-08-07T22:06:42.090Z,5.13
2017-08-07T22:09:09.890Z,6.63
2017-08-07T22:11:37.528Z,6.20
2017-08-07T22:14:05.081Z,5.97
2017-08-07T22:16:32.617Z,6.27
2017-08-07T22:19:00.209Z,6.63
2017-08-07T22:21:27.750Z,6.50
2017-08-07T22:23:55.326Z,6.00
2017-08-07T22:26:22.874Z,6.20
2017-08-07T22:28:50.424Z,5.80
2017-08-07T22:31:18.010Z,6.57
2017-08-07T22:33:45.564Z,5.40
2017-08-07T22:36:13.129Z,6.03
2017-08-07T22:38:40.689Z,5.80
2017-08-07T22:41:08.249Z,5.93
2017-08-07T22:43:35.824Z,6.40
2017-08-07T22:46:03.370Z,6.87
2017-08-07T22:48:30.957Z,6.30
2017-08-07T22:50:59.267Z,5.90
2017-08-07T22:53:26.819Z,7.00
2017-08-07T22:55:55.146Z,5.80
2017-08-07T22:58:22.708Z,6.40
2017-08-07T23:00:50.282Z,6.40
2017-08-07T23:03:17.857Z,6.30
2017-08-07T23:05:45.399Z,7.30
2017-08-07T23:08:13.086Z,6.60
2017-08-07T23:10:40.653Z,6.13
2017-08-07T23:13:08.246Z,7.00
2017-08-07T23:15:35.797Z,7.23
2017-08-07T23:18:04.134Z,6.77
2017-08-07T23:20:31.704Z,6.07
2017-08-07T23:22:59.239Z,6.60
2017-08-07T23:25:26.837Z,7.17
2017-08-07T23:27:54.376Z,7.10
2017-08-07T23:30:21.916Z,6.23
2017-08-07T23:32:49.499Z,6.50
2017-08-07T23:35:17.046Z,6.30
2017-08-07T23:37:44.636Z,6.87
2017-08-07T23:40:12.175Z,6.27
2017-08-07T23:42:39.719Z,6.87
2017-08-07T23:45:07.297Z,7.30
2017-08-07T23:47:34.858Z,6.90
2017-08-07T23:50:02.437Z,7.60
2017-08-07T23:52:29.989Z,8.37
2017-08-07T23:54:57.550Z,7.30
2017-08-07T23:57:25.130Z,6.50
2017-08-07T23:59:52.696Z,7.30
